Time;durP1;ratioP1;P1;durP2;ratioP2;P2;SDS_P1;SDS_P2;PMS_P1;PMS_P2;Temp;Humidity;BMP_temperature;BMP_pressure;BME280_temperature;BME280_humidity;BME280_pressure;Samples;Min_cycle;Max_cycle;Signal;HPM_P1;HPM_P2
2024/01/15 00:00:32;;;;;;;50.37;22.73;;;;;;;-2.81;71.85;99545.22;2535399;28;20291;-80
2024/01/15 00:01:50;;;;;;;46.73;23.40;;;;;;;-2.82;72.29;99545.16;2536915;28;20366;-81
2024/01/15 00:03:10;;;;;;;48.80;25.93;;;;;;;-2.83;71.85;99549.41;2535295;28;20941;-80
2024/01/15 00:04:28;;;;;;;61.90;24.53;;;;;;;-2.82;72.03;99552.81;2535793;28;20642;-78
2024/01/15 00:05:44;;;;;;;54.67;26.40;;;;;;;-2.81;72.42;99557.97;2535228;28;20827;-81
2024/01/15 00:07:07;;;;;;;48.77;22.67;;;;;;;-2.81;72.14;99552.88;2535328;28;20303;-79
2024/01/15 00:08:22;;;;;;;52.10;23.50;;;;;;;-2.79;72.36;99551.19;2535333;28;20782;-81
2024/01/15 00:09:43;;;;;;;58.03;25.20;;;;;;;-2.79;72.57;99551.19;2534985;28;20053;-81
2024/01/15 00:11:02;;;;;;;45.07;22.63;;;;;;;-2.79;72.73;99551.19;2535274;28;20311;-81
2024/01/15 00:12:20;;;;;;;49.30;23.23;;;;;;;-2.77;72.27;99548.69;2534939;28;20312;-81
2024/01/15 00:13:34;;;;;;;50.17;24.40;;;;;;;-2.77;72.59;99549.56;2536066;28;20326;-81
2024/01/15 00:14:55;;;;;;;58.07;24.87;;;;;;;-2.76;72.90;99545.31;2541907;28;20304;-80
2024/01/15 00:16:12;;;;;;;58.57;25.93;;;;;;;-2.75;72.91;99547.06;2535821;28;20132;-80
2024/01/15 00:17:27;;;;;;;51.07;25.23;;;;;;;-2.74;72.38;99546.22;2535132;28;20315;-78
2024/01/15 00:18:44;;;;;;;53.35;25.60;;;;;;;-2.72;72.71;99548.00;2543158;28;20299;-79
2024/01/15 00:20:01;;;;;;;54.80;25.07;;;;;;;-2.71;73.01;99549.75;2529727;28;20283;-79
2024/01/15 00:21:15;;;;;;;47.67;24.03;;;;;;;-2.73;72.82;99543.72;2538171;28;20343;-82
2024/01/15 00:22:35;;;;;;;56.60;28.92;;;;;;;-2.75;73.10;99547.91;2535135;28;20724;-82
2024/01/15 00:23:51;;;;;;;56.43;25.73;;;;;;;-2.73;72.44;99542.88;2532676;28;20306;-79
2024/01/15 00:25:24;;;;;;;50.63;23.63;;;;;;;-2.73;72.81;99546.28;2540429;28;20304;-81
2024/01/15 00:26:37;;;;;;;56.65;29.63;;;;;;;-2.71;72.76;99548.84;2536752;28;20296;-82
2024/01/15 00:27:56;;;;;;;47.83;25.47;;;;;;;-2.70;73.13;99548.03;2540275;28;20083;-80
2024/01/15 00:29:19;;;;;;;59.40;28.57;;;;;;;-2.70;72.91;99540.38;2541160;28;20111;-79
2024/01/15 00:30:38;;;;;;;56.03;26.80;;;;;;;-2.70;72.65;99548.03;2535130;28;20303;-83
2024/01/15 00:31:52;;;;;;;53.33;27.03;;;;;;;-2.69;73.01;99545.50;2534377;28;20053;-82
2024/01/15 00:33:07;;;;;;;60.87;28.57;;;;;;;-2.68;72.87;99542.16;2534825;28;20303;-82
2024/01/15 00:34:29;;;;;;;56.10;27.40;;;;;;;-2.65;73.04;99539.69;2536569;28;20296;-82
2024/01/15 00:35:46;;;;;;;50.60;24.40;;;;;;;-2.65;72.73;99534.56;2533207;28;20350;-80
2024/01/15 00:37:15;;;;;;;48.97;22.30;;;;;;;-2.65;72.78;99534.56;2534855;28;20323;-78
2024/01/15 00:38:37;;;;;;;58.93;25.10;;;;;;;-2.63;73.27;99537.19;2543110;28;20380;-80
2024/01/15 00:39:52;;;;;;;63.03;26.58;;;;;;;-2.62;72.75;99531.22;2540974;28;20779;-79
2024/01/15 00:41:24;;;;;;;54.87;24.90;;;;;;;-2.60;72.80;99533.84;2534658;28;20053;-78
2024/01/15 00:42:40;;;;;;;61.23;26.83;;;;;;;-2.60;72.94;99531.28;2534481;28;20703;-80
2024/01/15 00:43:55;;;;;;;50.47;21.13;;;;;;;-2.61;72.85;99526.97;2537711;28;20337;-80
2024/01/15 00:45:14;;;;;;;60.37;27.33;;;;;;;-2.62;72.71;99523.56;2538594;28;20654;-79
2024/01/15 00:46:45;;;;;;;55.37;23.90;;;;;;;-2.61;73.22;99524.44;2533609;28;20300;-81
2024/01/15 00:48:00;;;;;;;66.53;28.03;;;;;;;-2.63;73.04;99521.84;2533744;28;20344;-80
2024/01/15 00:51:02;;;;;;;40.20;19.70;;;;;;;-2.63;72.92;99520.16;2534197;28;20300;-79
2024/01/15 00:52:32;;;;;;;52.83;27.03;;;;;;;-2.61;72.72;99524.44;2538280;28;20295;-80
2024/01/15 00:53:52;;;;;;;52.40;22.33;;;;;;;-2.64;72.81;99515.84;2534130;28;20365;-78
2024/01/15 00:55:07;;;;;;;64.53;30.30;;;;;;;-2.63;73.10;99519.28;2538831;28;20299;-79
2024/01/15 00:56:27;;;;;;;61.83;27.33;;;;;;;-2.66;73.25;99504.75;2537129;28;20338;-78
2024/01/15 00:57:47;;;;;;;54.23;25.77;;;;;;;-2.65;73.22;99510.72;2534977;28;20307;-82
2024/01/15 00:59:02;;;;;;;50.57;26.23;;;;;;;-2.65;73.14;99519.25;2542986;28;20398;-82
2024/01/15 01:00:28;;;;;;;63.87;27.27;;;;;;;-2.65;73.38;99514.13;2544036;28;20292;-82
2024/01/15 01:01:56;;;;;;;62.90;27.07;;;;;;;-2.64;73.27;99512.44;2534178;28;20346;-83
2024/01/15 01:03:12;;;;;;;50.77;25.90;;;;;;;-2.64;73.04;99507.34;2523218;28;20303;-82
2024/01/15 01:04:39;;;;;;;60.43;26.93;;;;;;;-2.64;72.99;99508.19;2541217;28;20300;-82
2024/01/15 01:06:01;;;;;;;52.03;20.40;;;;;;;-2.64;73.00;99500.53;2544269;28;20299;-81
2024/01/15 01:07:19;;;;;;;47.38;25.23;;;;;;;-2.63;72.88;99499.72;2543135;28;20299;-80
2024/01/15 01:10:30;;;;;;;52.50;24.03;;;;;;;-2.61;73.20;99504.84;2530529;28;20323;-81
2024/01/15 01:12:01;;;;;;;48.80;26.00;;;;;;;-2.62;73.13;99498.03;2533269;28;20828;-81
2024/01/15 01:13:21;;;;;;;56.57;27.37;;;;;;;-2.63;72.88;99497.16;2534220;28;20298;-82
2024/01/15 01:14:43;;;;;;;51.38;27.95;;;;;;;-2.61;73.37;99504.00;2541583;28;20705;-81
2024/01/15 01:16:00;;;;;;;46.30;23.33;;;;;;;-2.63;73.45;99497.16;2532948;28;20393;-81
2024/01/15 01:17:21;;;;;;;53.50;25.03;;;;;;;-2.63;73.47;99503.97;2534752;28;20300;-82
2024/01/15 01:18:56;;;;;;;52.83;26.00;;;;;;;-2.61;73.37;99498.88;2543160;28;20394;-82
2024/01/15 01:20:18;;;;;;;59.93;27.57;;;;;;;-2.62;73.00;99492.91;2543677;28;20283;-81
2024/01/15 01:21:32;;;;;;;53.57;26.40;;;;;;;-2.60;73.48;99503.19;2535570;28;20304;-81
2024/01/15 01:22:56;;;;;;;60.93;26.60;;;;;;;-2.60;73.41;99501.50;2533372;28;20346;-80
2024/01/15 01:24:24;;;;;;;58.60;25.07;;;;;;;-2.60;73.18;99504.03;2525404;28;20314;-81
2024/01/15 01:25:39;;;;;;;56.73;26.03;;;;;;;-2.58;73.06;99491.28;2534189;28;20776;-81
2024/01/15 01:27:01;;;;;;;49.73;23.13;;;;;;;-2.56;73.48;99499.88;2534443;28;20307;-82
2024/01/15 01:28:41;;;;;;;42.63;17.10;;;;;;;-2.58;73.42;99509.16;2524410;28;20310;-81
2024/01/15 01:30:08;;;;;;;57.27;24.80;;;;;;;-2.57;73.56;99503.25;2537662;28;20108;-82
2024/01/15 01:31:27;;;;;;;49.83;23.70;;;;;;;-2.58;73.03;99509.16;2543339;28;20328;-80
2024/01/15 01:32:45;;;;;;;54.13;25.27;;;;;;;-2.56;73.66;99497.31;2542338;28;20307;-81
2024/01/15 01:34:01;;;;;;;63.00;29.10;;;;;;;-2.54;73.51;99500.78;2534346;28;20769;-81
2024/01/15 01:35:25;;;;;;;56.03;26.67;;;;;;;-2.54;73.41;99499.09;2533304;28;20362;-82
2024/01/15 01:36:48;;;;;;;56.17;24.60;;;;;;;-2.54;73.68;99491.41;2534099;28;20299;-81
2024/01/15 01:38:03;;;;;;;45.97;23.30;;;;;;;-2.53;73.32;99494.84;2534479;28;20304;-80
2024/01/15 01:39:26;;;;;;;50.67;25.20;;;;;;;-2.54;73.48;99496.53;2534363;28;20303;-81
2024/01/15 01:40:46;;;;;;;53.08;25.30;;;;;;;-2.53;73.41;99500.84;2543003;28;20300;-77
2024/01/15 01:41:59;;;;;;;51.23;22.53;;;;;;;-2.52;73.28;99494.03;2543045;28;20042;-79
2024/01/15 01:43:19;;;;;;;52.03;24.63;;;;;;;-2.51;73.15;99493.19;2541266;28;20342;-78
2024/01/15 01:44:35;;;;;;;51.17;24.50;;;;;;;-2.51;73.59;99493.19;2548438;28;20048;-81
2024/01/15 01:45:57;;;;;;;54.47;25.70;;;;;;;-2.50;73.32;99500.03;2534962;28;21644;-81
2024/01/15 01:47:28;;;;;;;57.93;27.90;;;;;;;-2.49;73.58;99499.19;2539929;28;20928;-81
2024/01/15 01:48:47;;;;;;;63.50;26.43;;;;;;;-2.49;73.24;99504.31;2536634;28;20315;-80
2024/01/15 01:50:01;;;;;;;55.50;28.97;;;;;;;-2.47;73.17;99506.09;2544569;28;20361;-80
2024/01/15 01:51:30;;;;;;;56.10;25.13;;;;;;;-2.46;73.65;99510.34;2538233;28;20304;-81
2024/01/15 01:52:55;;;;;;;47.97;24.03;;;;;;;-2.44;73.68;99507.84;2536957;28;20308;-80
2024/01/15 01:54:18;;;;;;;55.17;25.03;;;;;;;-2.44;73.47;99507.84;2544873;28;20382;-81
2024/01/15 01:55:47;;;;;;;54.93;26.97;;;;;;;-2.45;73.13;99507.00;2534268;28;20645;-80
2024/01/15 01:57:09;;;;;;;52.93;25.60;;;;;;;-2.43;73.73;99504.47;2537153;28;20296;-80
2024/01/15 01:58:34;;;;;;;46.03;23.30;;;;;;;-2.41;73.63;99508.78;2536527;28;20673;-82
2024/01/15 01:59:52;;;;;;;44.33;22.95;;;;;;;-2.42;73.63;99503.66;2532307;28;20406;-81
2024/01/15 02:01:12;;;;;;;50.20;24.03;;;;;;;-2.41;73.50;99513.03;2538101;28;20916;-81
2024/01/15 02:02:32;;;;;;;52.30;24.83;;;;;;;-2.42;73.54;99506.22;2535801;28;20704;-82
2024/01/15 02:04:13;;;;;;;42.20;23.07;;;;;;;-2.39;73.44;99510.53;2531317;28;20349;-81
2024/01/15 02:05:29;;;;;;;56.13;25.87;;;;;;;-2.39;73.17;99507.97;2516657;28;20664;-81
2024/01/15 02:07:06;;;;;;;50.43;23.33;;;;;;;-2.37;73.21;99508.88;2534940;28;20311;-81
2024/01/15 02:08:20;;;;;;;57.37;28.90;;;;;;;-2.35;73.63;99507.19;2535260;28;20300;-80
2024/01/15 02:09:41;;;;;;;47.80;26.83;;;;;;;-2.36;73.45;99506.34;2532814;28;20409;-81
2024/01/15 02:10:58;;;;;;;56.03;24.63;;;;;;;-2.35;73.61;99508.09;2532590;28;20505;-80
2024/01/15 02:12:22;;;;;;;46.55;23.33;;;;;;;-2.34;73.53;99499.59;2531662;28;20304;-81
2024/01/15 02:13:40;;;;;;;55.40;26.30;;;;;;;-2.32;73.74;99504.72;2540704;28;20303;-81
2024/01/15 02:15:01;;;;;;;45.03;22.27;;;;;;;-2.33;73.79;99501.31;2532652;28;20311;-81
2024/01/15 02:16:26;;;;;;;53.63;26.77;;;;;;;-2.31;73.76;99501.34;2532088;28;20287;-81
2024/01/15 02:18:05;;;;;;;53.33;24.00;;;;;;;-2.31;73.25;99502.22;2532847;28;20304;-80
2024/01/15 02:19:28;;;;;;;57.60;26.60;;;;;;;-2.31;73.37;99491.13;2537975;28;20323;-80
2024/01/15 02:20:46;;;;;;;;;;;;;;;-2.32;73.30;99497.94;2544039;28;20292;-80
2024/01/15 02:22:03;;;;;;;52.13;25.90;;;;;;;-2.34;73.66;99488.50;2541251;28;19921;-82
2024/01/15 02:23:37;;;;;;;44.23;23.40;;;;;;;-2.34;73.53;99497.03;2527453;28;20344;-81
2024/01/15 02:24:54;;;;;;;47.17;24.45;;;;;;;-2.35;73.11;99491.88;2536782;28;20292;-81
2024/01/15 02:26:12;;;;;;;55.07;24.73;;;;;;;-2.35;73.50;99492.75;2535054;28;20740;-83
2024/01/15 02:27:38;;;;;;;52.88;25.92;;;;;;;-2.34;73.56;99491.91;2543260;28;20283;-82
2024/01/15 02:29:02;;;;;;;46.60;23.63;;;;;;;-2.33;73.83;99493.63;2539683;28;20299;-82
2024/01/15 02:30:20;;;;;;;40.22;20.88;;;;;;;-2.34;73.47;99483.41;2536939;28;20299;-82
2024/01/15 02:31:43;;;;;;;51.33;26.07;;;;;;;-2.34;73.86;99485.94;2541926;28;20724;-82
2024/01/15 02:33:03;;;;;;;55.15;25.40;;;;;;;-2.34;73.36;99481.69;2542681;28;20300;-81
2024/01/15 02:34:23;;;;;;;51.47;25.23;;;;;;;-2.33;73.28;99485.13;2535877;28;20314;-82
2024/01/15 02:35:49;;;;;;;50.40;26.37;;;;;;;-2.35;73.25;99486.75;2527824;28;20284;-81
2024/01/15 02:37:04;;;;;;;52.63;23.57;;;;;;;-2.35;73.45;99489.31;2541068;28;20780;-80
2024/01/15 02:38:27;;;;;;;52.65;27.10;;;;;;;-2.36;73.38;99485.91;2535929;28;20304;-82
2024/01/15 02:39:53;;;;;;;54.67;25.58;;;;;;;-2.36;73.26;99485.91;2533906;28;20300;-82
2024/01/15 02:41:15;;;;;;;57.47;26.77;;;;;;;-2.36;73.73;99485.91;2536370;28;20041;-81
2024/01/15 02:42:35;;;;;;;57.13;28.63;;;;;;;-2.35;73.51;99484.22;2544906;28;20311;-81
2024/01/15 02:43:53;;;;;;;51.38;27.65;;;;;;;-2.36;73.51;99492.72;2535094;28;20410;-82
2024/01/15 02:45:14;;;;;;;56.40;26.53;;;;;;;-2.36;73.72;99483.34;2536137;28;20315;-82
2024/01/15 02:46:38;;;;;;;51.65;25.83;;;;;;;-2.35;73.40;99484.22;2543664;28;20310;-82
2024/01/15 02:48:01;;;;;;;55.00;27.95;;;;;;;-2.33;73.45;99485.13;2535730;28;20355;-81
2024/01/15 02:49:41;;;;;;;41.75;20.77;;;;;;;-2.33;73.65;99483.41;2536844;28;20383;-82
2024/01/15 02:51:00;;;;;;;56.72;25.85;;;;;;;-2.34;73.69;99483.41;2535950;28;20836;-82
2024/01/15 02:52:33;;;;;;;52.60;24.07;;;;;;;-2.34;73.55;99479.16;2527487;28;20284;-82
2024/01/15 02:54:01;;;;;;;49.83;24.88;;;;;;;-2.33;73.80;99483.41;2535844;28;20311;-83
2024/01/15 02:55:18;;;;;;;52.37;25.47;;;;;;;-2.34;73.76;99476.59;2534837;28;20490;-82
2024/01/15 02:56:35;;;;;;;55.97;24.70;;;;;;;-2.34;73.96;99481.69;2535579;28;20311;-82
2024/01/15 02:57:57;;;;;;;52.45;26.15;;;;;;;-2.35;73.67;99479.97;2536521;28;20303;-80
2024/01/15 02:59:12;;;;;;;46.93;23.63;;;;;;;-2.34;73.73;99474.03;2538933;28;20331;-83
2024/01/15 03:00:57;;;;;;;57.20;25.35;;;;;;;-2.32;74.03;99486.81;2539295;28;20300;-81
2024/01/15 03:02:14;;;;;;;49.97;23.30;;;;;;;-2.31;73.96;99486.88;2538005;28;20393;-79
2024/01/15 03:03:41;;;;;;;54.60;23.37;;;;;;;-2.30;73.60;99480.94;2538627;28;20295;-82
2024/01/15 03:04:54;;;;;;;43.80;19.47;;;;;;;-2.29;74.18;99482.69;2538765;28;20319;-82
2024/01/15 03:06:19;;;;;;;41.83;20.50;;;;;;;-2.29;74.11;99492.03;2546006;28;20307;-81
2024/01/15 03:08:07;;;;;;;50.77;22.37;;;;;;;-2.30;73.78;99480.94;2536357;28;20038;-83
2024/01/15 03:09:23;;;;;;;49.73;22.87;;;;;;;-2.28;73.82;99489.50;2535593;28;20308;-82
2024/01/15 03:10:49;;;;;;;42.40;20.73;;;;;;;-2.27;74.07;99478.47;2535541;28;20681;-81
2024/01/15 03:12:07;;;;;;;46.83;21.30;;;;;;;-2.24;73.62;99482.78;2539121;28;20288;-80
2024/01/15 03:13:29;;;;;;;44.27;21.37;;;;;;;-2.24;73.65;99473.44;2546307;28;20353;-81
2024/01/15 03:14:52;;;;;;;37.10;21.33;;;;;;;-2.22;73.54;99478.56;2536422;28;20315;-82
2024/01/15 03:16:16;;;;;;;42.43;21.23;;;;;;;-2.22;73.77;99471.78;2533878;28;20052;-81
2024/01/15 03:17:30;;;;;;;45.23;24.33;;;;;;;-2.23;73.73;99457.25;2542148;28;20300;-83
2024/01/15 03:19:02;;;;;;;48.00;24.90;;;;;;;-2.24;73.60;99470.88;2535761;28;20323;-81
2024/01/15 03:20:18;;;;;;;48.53;24.05;;;;;;;-2.23;73.56;99476.84;2540112;28;20638;-80
2024/01/15 03:21:36;;;;;;;44.77;24.03;;;;;;;-2.24;73.64;99470.88;2537346;28;20308;-82
2024/01/15 03:23:01;;;;;;;50.13;26.30;;;;;;;-2.23;74.10;99476.84;2537083;28;20311;-81
2024/01/15 03:24:36;;;;;;;44.50;21.00;;;;;;;-2.24;74.11;99462.34;2536665;28;20326;-83
2024/01/15 03:25:52;;;;;;;47.73;25.27;;;;;;;-2.23;73.64;99466.63;2536465;28;20300;-81
2024/01/15 03:27:26;;;;;;;46.37;24.97;;;;;;;-2.23;74.11;99464.91;2535338;28;20374;-83
2024/01/15 03:28:40;;;;;;;50.13;27.53;;;;;;;-2.24;74.23;99463.22;2536044;28;20689;-81
2024/01/15 03:30:02;;;;;;;41.90;20.23;;;;;;;-2.23;73.81;99462.38;2539010;28;20320;-83
2024/01/15 03:31:22;;;;;;;44.38;21.95;;;;;;;-2.22;73.72;99465.78;2540257;28;20084;-83
2024/01/15 03:32:44;;;;;;;53.93;24.30;;;;;;;-2.22;73.88;99469.22;2544542;28;20045;-81
2024/01/15 03:34:03;;;;;;;48.08;21.77;;;;;;;-2.21;74.30;99464.97;2536750;28;20674;-81
2024/01/15 03:37:20;;;;;;;47.67;23.97;;;;;;;-2.21;74.08;99460.72;2505059;28;20710;-81
2024/01/15 03:38:47;;;;;;;48.63;23.63;;;;;;;-2.20;74.14;99461.56;2537559;28;20311;-82
2024/01/15 03:40:09;;;;;;;50.80;23.37;;;;;;;-2.20;74.33;99462.44;2528094;28;20896;-80
2024/01/15 03:41:40;;;;;;;45.78;22.70;;;;;;;-2.20;74.33;99470.09;2542484;28;20388;-80
2024/01/15 03:42:55;;;;;;;50.25;23.33;;;;;;;-2.20;74.05;99464.13;2535678;28;20084;-83
2024/01/15 03:44:12;;;;;;;43.77;20.50;;;;;;;-2.20;74.06;99461.56;2534687;28;20284;-81
2024/01/15 03:45:39;;;;;;;44.22;22.60;;;;;;;-2.19;74.04;99458.22;2542403;28;20307;-81
2024/01/15 03:46:57;;;;;;;46.88;24.83;;;;;;;-2.17;74.01;99464.19;2538170;28;20304;-80
2024/01/15 03:48:19;;;;;;;45.90;20.95;;;;;;;-2.16;74.30;99457.41;2539895;28;20284;-82
2024/01/15 03:49:39;;;;;;;47.28;23.63;;;;;;;-2.16;74.31;99454.84;2535548;28;20765;-78
2024/01/15 03:51:03;;;;;;;51.13;28.08;;;;;;;-2.16;74.43;99458.28;2537766;28;20304;-78
2024/01/15 03:52:25;;;;;;;53.33;23.40;;;;;;;-2.15;74.47;99457.44;2545333;28;20695;-79
2024/01/15 03:53:51;;;;;;;40.13;19.85;;;;;;;-2.14;74.43;99455.72;2536919;28;20776;-80
2024/01/15 03:55:07;;;;;;;49.25;24.83;;;;;;;-2.14;74.46;99450.63;2533988;28;20045;-80
2024/01/15 03:56:36;;;;;;;45.10;25.50;;;;;;;-2.15;74.22;99448.91;2535408;28;20366;-78
2024/01/15 03:57:55;;;;;;;45.45;22.85;;;;;;;-2.14;74.20;99450.63;2535212;28;20798;-80
2024/01/15 03:59:11;;;;;;;47.75;24.50;;;;;;;-2.13;74.49;99450.66;2534202;28;20296;-79
2024/01/15 04:00:37;;;;;;;45.47;24.97;;;;;;;-2.13;74.33;99443.00;2542176;28;20307;-81
2024/01/15 04:01:58;;;;;;;59.22;28.40;;;;;;;-2.11;74.19;99443.06;2537832;28;20826;-79
2024/01/15 04:03:15;;;;;;;48.27;23.70;;;;;;;-2.12;74.68;99436.19;2543922;28;20672;-80
2024/01/15 04:04:31;;;;;;;48.17;23.80;;;;;;;-2.12;74.71;99437.03;2538108;28;20297;-82
2024/01/15 04:05:48;;;;;;;55.85;25.58;;;;;;;-2.11;74.40;99430.28;2542875;28;20296;-79
2024/01/15 04:07:04;;;;;;;49.58;20.45;;;;;;;-2.12;74.88;99434.50;2533526;28;20411;-78
2024/01/15 04:08:21;;;;;;;52.83;26.85;;;;;;;-2.12;74.93;99428.53;2535125;28;20300;-79
2024/01/15 04:09:40;;;;;;;53.47;27.13;;;;;;;-2.14;74.69;99436.19;2542332;28;20668;-80
2024/01/15 04:11:03;;;;;;;50.58;26.55;;;;;;;-2.13;74.81;99429.38;2542155;28;20307;-78
2024/01/15 04:12:25;;;;;;;56.50;24.55;;;;;;;-2.13;74.30;99430.22;2535000;28;20283;-81
2024/01/15 04:13:53;;;;;;;34.95;20.17;;;;;;;-2.13;74.83;99431.91;2534957;28;20041;-80
2024/01/15 04:15:18;;;;;;;38.20;19.63;;;;;;;-2.14;74.60;99425.06;2539747;28;20069;-80
2024/01/15 04:16:31;;;;;;;50.25;23.05;;;;;;;-2.16;74.80;99426.75;2534823;28;20300;-78
2024/01/15 04:17:50;;;;;;;52.93;23.27;;;;;;;-2.17;74.49;99410.53;2542611;28;20718;-79
2024/01/15 04:19:03;;;;;;;55.70;27.23;;;;;;;-2.16;74.53;99411.41;2533177;28;20461;-78
2024/01/15 04:20:20;;;;;;;44.13;25.13;;;;;;;-2.15;74.79;99408.00;2539569;28;20386;-79
2024/01/15 04:21:33;;;;;;;51.35;26.73;;;;;;;-2.16;74.75;99411.41;2536877;28;20073;-79
2024/01/15 04:22:53;;;;;;;49.83;24.23;;;;;;;-2.16;74.64;99407.16;2535562;28;20308;-79
2024/01/15 04:24:08;;;;;;;51.87;24.90;;;;;;;-2.15;74.86;99405.47;2539029;28;20038;-78
2024/01/15 04:25:23;;;;;;;57.57;24.47;;;;;;;-2.14;74.88;99404.63;2534351;28;20401;-79
2024/01/15 04:26:38;;;;;;;56.50;24.17;;;;;;;-2.14;75.39;99409.72;2533907;28;20299;-79
2024/01/15 04:27:58;;;;;;;45.97;23.35;;;;;;;-2.14;75.08;99412.28;2522173;28;20299;-78
2024/01/15 04:29:14;;;;;;;50.03;21.67;;;;;;;-2.15;74.88;99406.31;2534528;28;20323;-79
2024/01/15 04:30:33;;;;;;;44.22;23.27;;;;;;;-2.13;75.03;99401.25;2541803;28;20322;-79
2024/01/15 04:31:47;;;;;;;46.20;24.27;;;;;;;-2.13;75.08;99401.25;2526012;28;20292;-80
2024/01/15 04:33:07;;;;;;;46.60;23.27;;;;;;;-2.12;75.23;99400.41;2534668;28;20299;-77
2024/01/15 04:34:26;;;;;;;54.42;24.33;;;;;;;-2.12;75.15;99397.84;2535005;28;20041;-78
2024/01/15 04:35:45;;;;;;;36.53;20.67;;;;;;;-2.13;74.84;99402.09;2542187;28;20294;-78
2024/01/15 04:37:07;;;;;;;61.72;23.50;;;;;;;-2.12;75.21;99402.97;2534689;28;20322;-76
2024/01/15 04:38:36;;;;;;;44.37;23.07;;;;;;;-2.12;75.37;99403.81;2534824;28;20300;-79
2024/01/15 04:39:54;;;;;;;51.80;23.60;;;;;;;-2.10;74.83;99419.19;2532947;28;20292;-80
2024/01/15 04:41:20;;;;;;;46.72;24.73;;;;;;;-2.09;75.10;99409.03;2534263;28;20343;-78
2024/01/15 04:42:52;;;;;;;49.60;25.35;;;;;;;-2.08;74.99;99408.19;2533824;28;20304;-77
2024/01/15 04:44:10;;;;;;;56.83;27.25;;;;;;;-2.11;75.12;99400.44;2530775;28;20382;-79
2024/01/15 04:45:40;;;;;;;40.08;21.83;;;;;;;-2.10;75.09;99406.41;2547540;28;20327;-78
2024/01/15 04:46:58;;;;;;;48.33;27.10;;;;;;;-2.13;75.18;99403.81;2534730;28;20304;-79
2024/01/15 04:48:31;;;;;;;51.95;25.20;;;;;;;-2.14;75.45;99400.38;2537401;28;20291;-79
2024/01/15 04:49:52;;;;;;;42.78;20.15;;;;;;;-2.16;74.99;99391.81;2542035;28;20303;-78
2024/01/15 04:51:18;;;;;;;50.85;26.90;;;;;;;-2.18;74.84;99398.59;2532543;28;20041;-78
2024/01/15 04:52:47;;;;;;;45.17;24.98;;;;;;;-2.20;75.23;99402.78;2533327;28;20695;-79
2024/01/15 04:54:04;;;;;;;44.10;23.50;;;;;;;-2.21;74.82;99403.63;2533537;28;20409;-79
2024/01/15 04:55:34;;;;;;;55.38;24.75;;;;;;;-2.23;75.45;99388.25;2531957;28;20701;-78
2024/01/15 04:57:08;;;;;;;48.63;24.48;;;;;;;-2.23;75.45;99395.06;2533895;28;20311;-78
2024/01/15 04:58:35;;;;;;;51.50;25.88;;;;;;;-2.24;75.42;99388.22;2533555;28;20319;-77
2024/01/15 05:00:03;;;;;;;48.90;25.25;;;;;;;-2.25;75.60;99387.34;2525346;28;20631;-79
2024/01/15 05:01:16;;;;;;;61.10;29.38;;;;;;;-2.24;75.70;99388.22;2534605;28;20303;-79
2024/01/15 05:02:43;;;;;;;52.75;24.10;;;;;;;-2.24;75.46;99378.00;2533979;28;20713;-80
2024/01/15 05:04:00;;;;;;;46.88;25.25;;;;;;;-2.23;75.94;99380.59;2526410;28;20056;-79
2024/01/15 05:05:17;;;;;;;61.50;28.95;;;;;;;-2.23;75.70;99379.72;2539631;28;20307;-80
2024/01/15 05:06:39;;;;;;;53.90;24.20;;;;;;;-2.23;75.46;99377.16;2534128;28;20300;-80
2024/01/15 05:08:01;;;;;;;54.70;26.95;;;;;;;-2.22;75.98;99384.88;2532671;28;20370;-79
2024/01/15 05:09:20;;;;;;;49.40;27.63;;;;;;;-2.19;76.02;99373.88;2534992;28;20820;-79
2024/01/15 05:10:38;;;;;;;32.47;19.48;;;;;;;-2.18;75.77;99384.94;2533904;28;20124;-79
2024/01/15 05:12:00;;;;;;;49.50;24.45;;;;;;;-2.15;75.79;99382.44;2535548;28;20820;-77
2024/01/15 05:13:25;;;;;;;51.53;24.63;;;;;;;-2.13;75.86;99391.03;2541956;28;20304;-77
2024/01/15 05:14:43;;;;;;;46.33;24.00;;;;;;;-2.12;75.77;99388.47;2536514;28;20136;-78
2024/01/15 05:16:03;;;;;;;50.33;24.42;;;;;;;-2.11;76.27;99379.16;2544440;28;20657;-77
2024/01/15 05:17:31;;;;;;;55.33;26.25;;;;;;;-2.11;76.45;99374.88;2540471;28;20683;-81
2024/01/15 05:18:52;;;;;;;51.92;22.52;;;;;;;-2.09;76.05;99380.03;2544137;28;20310;-79
2024/01/15 05:20:10;;;;;;;63.30;25.05;;;;;;;-2.09;76.30;99372.34;2534223;28;20318;-77
2024/01/15 05:21:34;;;;;;;51.03;23.52;;;;;;;-2.10;76.08;99366.38;2537449;28;20303;-79
2024/01/15 05:22:53;;;;;;;49.63;28.33;;;;;;;-2.10;75.92;99363.81;2534299;28;20300;-81
2024/01/15 05:26:01;;;;;;;58.13;26.65;;;;;;;-2.10;76.35;99357.84;2539652;28;20819;-80
2024/01/15 05:27:21;;;;;;;61.28;29.17;;;;;;;-2.11;75.98;99356.16;2537753;28;20684;-80
2024/01/15 05:28:41;;;;;;;48.38;25.05;;;;;;;-2.11;76.34;99354.44;2536832;28;20398;-80
2024/01/15 05:30:03;;;;;;;53.33;27.60;;;;;;;-2.09;76.29;99357.00;2534121;28;20335;-79
2024/01/15 05:31:34;;;;;;;53.92;22.50;;;;;;;-2.09;75.94;99359.56;2527624;28;20307;-79
2024/01/15 05:32:47;;;;;;;45.90;24.73;;;;;;;-2.07;76.19;99350.25;2535736;28;20307;-79
2024/01/15 05:34:04;;;;;;;56.60;25.90;;;;;;;-2.07;76.55;99350.25;2541221;28;20325;-80
2024/01/15 05:35:22;;;;;;;51.67;26.58;;;;;;;-2.08;76.53;99344.28;2523424;28;20052;-80
2024/01/15 05:36:47;;;;;;;48.47;23.27;;;;;;;-2.06;76.00;99347.72;2533835;28;20342;-79
2024/01/15 05:38:03;;;;;;;52.95;27.15;;;;;;;-2.05;76.02;99363.94;2533287;28;20300;-79
2024/01/15 05:39:32;;;;;;;47.05;24.95;;;;;;;-2.04;76.09;99366.53;2533367;28;20312;-80
2024/01/15 05:40:52;;;;;;;60.38;27.25;;;;;;;-2.03;76.28;99357.16;2536689;28;20337;-78
2024/01/15 05:42:21;;;;;;;52.13;25.75;;;;;;;-2.02;76.50;99348.66;2539178;28;20882;-77
2024/01/15 05:43:42;;;;;;;47.40;24.55;;;;;;;-2.03;76.01;99352.03;2536184;28;20291;-80
2024/01/15 05:45:02;;;;;;;52.85;27.52;;;;;;;-2.03;76.63;99364.84;2535322;28;20315;-80
2024/01/15 05:46:27;;;;;;;63.70;25.85;;;;;;;-2.01;76.32;99370.84;2539828;28;20303;-81
2024/01/15 05:48:02;;;;;;;55.08;27.02;;;;;;;-2.01;76.15;99350.41;2536565;28;20689;-80
2024/01/15 05:49:38;;;;;;;54.95;27.67;;;;;;;-2.01;76.21;99355.50;2535272;28;20815;-80
2024/01/15 05:51:05;;;;;;;53.05;27.00;;;;;;;-2.04;76.15;99358.84;2535448;28;20311;-80
2024/01/15 05:52:44;;;;;;;55.80;26.40;;;;;;;-2.04;76.43;99348.63;2534191;28;20281;-80
2024/01/15 05:54:05;;;;;;;56.08;26.42;;;;;;;-2.06;76.00;99341.75;2534735;28;20310;-80
2024/01/15 05:55:23;;;;;;;53.83;24.53;;;;;;;-2.05;76.07;99334.09;2538894;28;20310;-81
2024/01/15 05:56:49;;;;;;;53.30;27.83;;;;;;;-2.05;76.06;99334.09;2536793;28;20824;-80
2024/01/15 05:58:03;;;;;;;52.03;25.70;;;;;;;-2.03;76.14;99326.47;2536669;28;20338;-80
2024/01/15 05:59:43;;;;;;;50.67;23.97;;;;;;;-2.05;76.56;99333.25;2538523;28;20312;-81
2024/01/15 06:01:03;;;;;;;55.42;27.40;;;;;;;-2.08;76.03;99328.94;2537157;28;20049;-80
2024/01/15 06:02:18;;;;;;;54.53;26.90;;;;;;;-2.10;76.19;99309.28;2542316;28;20310;-81
2024/01/15 06:03:38;;;;;;;60.73;26.63;;;;;;;-2.12;76.58;99319.47;2536513;28;20299;-78
2024/01/15 06:05:02;;;;;;;50.43;27.30;;;;;;;-2.12;76.17;99322.03;2545780;28;20330;-80
2024/01/15 06:06:18;;;;;;;42.33;25.80;;;;;;;-2.11;75.97;99315.25;2536750;28;20311;-78
2024/01/15 06:07:39;;;;;;;51.28;27.90;;;;;;;-2.13;76.83;99315.19;2528040;28;20292;-79
2024/01/15 06:09:08;;;;;;;57.63;28.20;;;;;;;-2.11;76.46;99307.56;2545785;28;20664;-79
2024/01/15 06:10:23;;;;;;;58.80;27.43;;;;;;;-2.11;76.44;99315.25;2542173;28;20303;-79
2024/01/15 06:11:47;;;;;;;;;;;;;;;;;;;;;
2024/01/15 06:13:04;;;;;;;51.20;26.20;;;;;;;-2.11;76.75;99313.53;2537245;28;20304;-81
2024/01/15 06:14:27;;;;;;;53.95;25.00;;;;;;;-2.09;76.39;99311.00;2537732;28;20304;-81
2024/01/15 06:15:56;;;;;;;48.10;22.58;;;;;;;-2.07;76.64;99311.91;2543659;28;20788;-80
2024/01/15 06:17:17;;;;;;;52.53;26.47;;;;;;;-2.06;76.23;99311.09;2537197;28;20049;-80
2024/01/15 06:18:32;;;;;;;56.60;27.83;;;;;;;-2.05;76.75;99300.88;2544198;28;20341;-80
2024/01/15 06:19:58;;;;;;;56.60;27.77;;;;;;;-2.03;76.37;99306.88;2527444;28;20808;-80
2024/01/15 06:21:25;;;;;;;48.28;24.50;;;;;;;-2.02;76.34;99302.63;2547472;28;20303;-81
2024/01/15 06:22:39;;;;;;;49.83;24.53;;;;;;;-2.00;76.77;99312.06;2540473;28;20304;-79
2024/01/15 06:24:00;;;;;;;47.75;25.75;;;;;;;-1.97;76.71;99322.34;2536664;28;20789;-79